createdAt,value
2022-11-03T00:03:12.455Z,99458.16
2022-11-03T00:13:13.833Z,99456.66
2022-11-03T00:23:15.221Z,99445.31
2022-11-03T00:33:16.622Z,99441.63
2022-11-03T00:43:17.992Z,99414.84
2022-11-03T00:53:19.414Z,99419.56
2022-11-03T01:03:20.794Z,99410.31
2022-11-03T01:13:22.339Z,99402.81
2022-11-03T01:23:23.962Z,99401.16
2022-11-03T01:33:25.365Z,99385.56
2022-11-03T01:43:29.042Z,99364.81
2022-11-03T01:53:30.427Z,99353.44
2022-11-03T02:03:37.992Z,99337.75
2022-11-03T02:13:39.362Z,99326.66
2022-11-03T02:23:49.114Z,99317.16
2022-11-03T02:34:26.548Z,99298.63
2022-11-03T02:44:27.917Z,99274.50
2022-11-03T02:54:40.506Z,99270.44
2022-11-03T03:04:56.439Z,99263.25
2022-11-03T03:14:57.937Z,99245.88
2022-11-03T03:25:24.085Z,99220.13
2022-11-03T03:35:26.772Z,99222.34
2022-11-03T03:45:28.387Z,99204.81
2022-11-03T03:55:35.522Z,99202.41
2022-11-03T04:05:37.291Z,99199.56
2022-11-03T04:15:57.039Z,99190.41
2022-11-03T04:25:58.461Z,99178.06
2022-11-03T04:36:00.166Z,99161.34
2022-11-03T04:46:01.585Z,99148.28
2022-11-03T04:56:13.581Z,99141.66
2022-11-03T05:06:37.425Z,99128.41
2022-11-03T05:16:38.822Z,99112.16
2022-11-03T05:26:40.207Z,99096.09
2022-11-03T05:36:41.609Z,99081.34
2022-11-03T05:46:42.998Z,99065.00
2022-11-03T05:56:44.390Z,99055.31
2022-11-03T06:06:52.892Z,99061.19
2022-11-03T06:16:56.593Z,99050.28
2022-11-03T06:26:58.597Z,99033.09
2022-11-03T06:37:09.507Z,99024.59
2022-11-03T06:47:19.615Z,98984.44
2022-11-03T06:57:21.010Z,98985.16
2022-11-03T07:07:22.691Z,98969.75
2022-11-03T07:17:24.081Z,98953.94
2022-11-03T07:27:27.105Z,98947.63
2022-11-03T07:37:28.491Z,98950.31
2022-11-03T07:47:30.059Z,98947.00
2022-11-03T07:57:31.444Z,98937.19
2022-11-03T08:07:32.948Z,98924.69
2022-11-03T08:17:34.362Z,98916.22
2022-11-03T08:27:35.815Z,98913.75
2022-11-03T08:37:37.345Z,98896.78
2022-11-03T08:47:38.922Z,98876.94
2022-11-03T08:57:40.314Z,98859.38
2022-11-03T09:18:03.297Z,98830.53
2022-11-03T09:28:05.493Z,98811.81
2022-11-03T09:38:07.932Z,98780.25
2022-11-03T09:48:12.834Z,98745.69
2022-11-03T09:58:15.520Z,98714.44
2022-11-03T10:08:29.820Z,98717.19
2022-11-03T10:18:31.206Z,98686.16
2022-11-03T10:28:32.578Z,98665.13
2022-11-03T10:38:35.010Z,98666.69
2022-11-03T10:48:36.555Z,98628.91
2022-11-03T10:58:37.959Z,98602.00
2022-11-03T11:08:39.536Z,98575.66
2022-11-03T11:18:40.843Z,98551.63
2022-11-03T11:29:05.225Z,98574.50
2022-11-03T11:39:27.987Z,98539.34
2022-11-03T11:49:29.378Z,98573.41
2022-11-03T11:59:30.751Z,98538.03
2022-11-03T12:09:33.414Z,98500.13
2022-11-03T12:19:45.107Z,98466.47
2022-11-03T12:29:46.532Z,98437.00
2022-11-03T12:39:47.930Z,98425.38
2022-11-03T12:49:49.309Z,98393.69
2022-11-03T12:59:52.301Z,98370.09
2022-11-03T13:09:53.692Z,98346.31
2022-11-03T13:19:55.106Z,98302.47
2022-11-03T13:29:56.514Z,98296.28
2022-11-03T13:39:57.915Z,98253.47
2022-11-03T13:50:13.808Z,98229.06
2022-11-03T14:00:16.939Z,98210.22
2022-11-03T14:10:18.466Z,98198.88
2022-11-03T14:20:20.115Z,98183.34
2022-11-03T14:30:21.520Z,98156.44
2022-11-03T14:40:41.551Z,98141.94
2022-11-03T14:50:43.166Z,98181.47
2022-11-03T15:00:45.022Z,98155.97
2022-11-03T15:10:46.414Z,98149.78
2022-11-03T15:20:47.997Z,98135.97
2022-11-03T15:30:49.462Z,98130.25
2022-11-03T15:40:50.849Z,98089.78
2022-11-03T15:50:52.232Z,98060.88
2022-11-03T16:00:55.217Z,98028.63
2022-11-03T16:10:58.403Z,98037.13
2022-11-03T16:20:59.951Z,98019.38
2022-11-03T16:31:01.394Z,98016.94
2022-11-03T16:41:02.802Z,98010.94
2022-11-03T16:51:04.235Z,97994.63
2022-11-03T17:01:05.830Z,97997.50
2022-11-03T17:11:07.341Z,97982.09
2022-11-03T17:21:08.705Z,97954.56
2022-11-03T17:31:10.256Z,97935.56
2022-11-03T17:41:15.007Z,97915.09
2022-11-03T17:51:19.516Z,97898.97
2022-11-03T18:01:25.553Z,97892.53
2022-11-03T18:11:46.504Z,97895.03
2022-11-03T18:21:48.128Z,97891.88
2022-11-03T18:31:50.484Z,97880.28
2022-11-03T18:41:52.137Z,97877.38
2022-11-03T18:52:03.089Z,97867.22
2022-11-03T19:02:25.854Z,97864.88
2022-11-03T19:12:27.317Z,97855.75
2022-11-03T19:22:28.719Z,97843.13
2022-11-03T19:32:31.927Z,97845.56
2022-11-03T19:42:36.728Z,97843.47
2022-11-03T19:52:38.346Z,97822.41
2022-11-03T20:02:39.923Z,97802.78
2022-11-03T20:12:41.602Z,97819.25
2022-11-03T20:22:45.062Z,97794.25
2022-11-03T20:32:47.891Z,97805.47
2022-11-03T20:42:50.869Z,97788.19
2022-11-03T20:52:52.258Z,97795.91
2022-11-03T21:02:54.707Z,97804.47
2022-11-03T21:12:56.181Z,97807.81
2022-11-03T21:22:57.552Z,97809.09
2022-11-03T21:32:58.949Z,97808.28
2022-11-03T21:43:19.218Z,97812.50
2022-11-03T21:53:20.616Z,97828.63
2022-11-03T22:03:22.233Z,97835.53
2022-11-03T22:13:23.698Z,97830.38
2022-11-03T22:23:43.739Z,97846.50
2022-11-03T22:34:03.721Z,97866.38
2022-11-03T22:44:23.970Z,97883.19
2022-11-03T22:54:25.368Z,97898.75
2022-11-03T23:04:26.780Z,97927.00
2022-11-03T23:14:48.191Z,97907.34
2022-11-03T23:25:01.771Z,97947.91
2022-11-03T23:35:04.509Z,97996.72
2022-11-03T23:45:24.982Z,97989.75
2022-11-03T23:55:46.395Z,97994.53
